sensor_id;sensor_type;location;lat;lon;timestamp;P1;durP1;ratioP1;P2;durP2;ratioP2
7587;SDS011;3835;48.850;8.938;2022-12-18T00:01:04;21.80;;;19.65;;
7587;SDS011;3835;48.850;8.938;2022-12-18T00:03:40;22.85;;;20.55;;
7587;SDS011;3835;48.850;8.938;2022-12-18T00:06:09;26.85;;;19.17;;
7587;SDS011;3835;48.850;8.938;2022-12-18T00:08:36;32.30;;;22.90;;
7587;SDS011;3835;48.850;8.938;2022-12-18T00:11:07;22.40;;;19.50;;
7587;SDS011;3835;48.850;8.938;2022-12-18T00:13:37;24.77;;;22.10;;
7587;SDS011;3835;48.850;8.938;2022-12-18T00:16:05;25.60;;;19.45;;
7587;SDS011;3835;48.850;8.938;2022-12-18T00:18:36;20.67;;;18.10;;
7587;SDS011;3835;48.850;8.938;2022-12-18T00:21:04;28.15;;;21.10;;
7587;SDS011;3835;48.850;8.938;2022-12-18T00:23:33;21.80;;;19.45;;
7587;SDS011;3835;48.850;8.938;2022-12-18T00:26:02;23.50;;;19.88;;
7587;SDS011;3835;48.850;8.938;2022-12-18T00:28:32;21.05;;;19.02;;
7587;SDS011;3835;48.850;8.938;2022-12-18T00:31:01;22.67;;;19.58;;
7587;SDS011;3835;48.850;8.938;2022-12-18T00:33:29;21.15;;;19.02;;
7587;SDS011;3835;48.850;8.938;2022-12-18T00:36:00;29.48;;;21.63;;
7587;SDS011;3835;48.850;8.938;2022-12-18T00:38:27;24.83;;;20.90;;
7587;SDS011;3835;48.850;8.938;2022-12-18T00:40:53;22.55;;;20.27;;
7587;SDS011;3835;48.850;8.938;2022-12-18T00:43:20;24.85;;;21.90;;
7587;SDS011;3835;48.850;8.938;2022-12-18T00:45:47;22.93;;;20.90;;
7587;SDS011;3835;48.850;8.938;2022-12-18T00:48:14;32.38;;;23.00;;
7587;SDS011;3835;48.850;8.938;2022-12-18T00:50:41;25.25;;;22.65;;
7587;SDS011;3835;48.850;8.938;2022-12-18T00:53:08;24.20;;;21.52;;
7587;SDS011;3835;48.850;8.938;2022-12-18T00:55:36;26.75;;;20.48;;
7587;SDS011;3835;48.850;8.938;2022-12-18T00:58:03;21.50;;;19.42;;
7587;SDS011;3835;48.850;8.938;2022-12-18T01:00:30;24.55;;;20.33;;
7587;SDS011;3835;48.850;8.938;2022-12-18T01:02:58;24.63;;;22.25;;
7587;SDS011;3835;48.850;8.938;2022-12-18T01:05:25;30.48;;;22.00;;
7587;SDS011;3835;48.850;8.938;2022-12-18T01:07:52;26.75;;;21.10;;
7587;SDS011;3835;48.850;8.938;2022-12-18T01:10:19;25.48;;;20.58;;
7587;SDS011;3835;48.850;8.938;2022-12-18T01:12:46;22.73;;;20.33;;
7587;SDS011;3835;48.850;8.938;2022-12-18T01:15:13;25.45;;;20.52;;
7587;SDS011;3835;48.850;8.938;2022-12-18T01:17:40;21.75;;;19.45;;
7587;SDS011;3835;48.850;8.938;2022-12-18T01:20:10;27.27;;;20.55;;
7587;SDS011;3835;48.850;8.938;2022-12-18T01:22:38;23.90;;;20.08;;
7587;SDS011;3835;48.850;8.938;2022-12-18T01:25:05;19.88;;;18.17;;
7587;SDS011;3835;48.850;8.938;2022-12-18T01:27:33;26.30;;;21.95;;
7587;SDS011;3835;48.850;8.938;2022-12-18T01:30:00;21.67;;;18.73;;
7587;SDS011;3835;48.850;8.938;2022-12-18T01:32:28;28.38;;;22.20;;
7587;SDS011;3835;48.850;8.938;2022-12-18T01:34:55;21.38;;;19.30;;
7587;SDS011;3835;48.850;8.938;2022-12-18T01:37:23;23.33;;;20.83;;
7587;SDS011;3835;48.850;8.938;2022-12-18T01:39:51;34.90;;;22.92;;
7587;SDS011;3835;48.850;8.938;2022-12-18T01:42:19;26.40;;;20.65;;
7587;SDS011;3835;48.850;8.938;2022-12-18T01:44:53;20.58;;;18.88;;
7587;SDS011;3835;48.850;8.938;2022-12-18T01:47:23;26.70;;;22.02;;
7587;SDS011;3835;48.850;8.938;2022-12-18T01:49:54;25.33;;;21.05;;
7587;SDS011;3835;48.850;8.938;2022-12-18T01:52:23;22.95;;;19.88;;
7587;SDS011;3835;48.850;8.938;2022-12-18T01:54:52;24.63;;;21.70;;
7587;SDS011;3835;48.850;8.938;2022-12-18T01:57:20;23.80;;;21.35;;
7587;SDS011;3835;48.850;8.938;2022-12-18T01:59:49;32.67;;;22.02;;
7587;SDS011;3835;48.850;8.938;2022-12-18T02:02:18;22.70;;;20.17;;
7587;SDS011;3835;48.850;8.938;2022-12-18T02:04:46;21.67;;;19.73;;
7587;SDS011;3835;48.850;8.938;2022-12-18T02:07:15;22.55;;;20.42;;
7587;SDS011;3835;48.850;8.938;2022-12-18T02:09:50;20.35;;;18.17;;
7587;SDS011;3835;48.850;8.938;2022-12-18T02:12:22;20.80;;;19.02;;
7587;SDS011;3835;48.850;8.938;2022-12-18T02:14:53;21.42;;;19.45;;
7587;SDS011;3835;48.850;8.938;2022-12-18T02:17:25;19.52;;;17.75;;
7587;SDS011;3835;48.850;8.938;2022-12-18T02:20:01;21.27;;;19.27;;
7587;SDS011;3835;48.850;8.938;2022-12-18T02:22:36;24.65;;;18.30;;
7587;SDS011;3835;48.850;8.938;2022-12-18T02:25:15;22.60;;;20.50;;
7587;SDS011;3835;48.850;8.938;2022-12-18T02:27:52;19.83;;;18.08;;
7587;SDS011;3835;48.850;8.938;2022-12-18T02:30:24;21.40;;;19.60;;
7587;SDS011;3835;48.850;8.938;2022-12-18T02:32:52;22.75;;;19.60;;
7587;SDS011;3835;48.850;8.938;2022-12-18T02:35:22;20.30;;;18.60;;
7587;SDS011;3835;48.850;8.938;2022-12-18T02:37:54;21.88;;;19.52;;
7587;SDS011;3835;48.850;8.938;2022-12-18T02:40:22;23.13;;;19.95;;
7587;SDS011;3835;48.850;8.938;2022-12-18T02:42:50;20.55;;;18.42;;
7587;SDS011;3835;48.850;8.938;2022-12-18T02:45:19;24.73;;;19.83;;
7587;SDS011;3835;48.850;8.938;2022-12-18T02:47:47;24.77;;;20.20;;
7587;SDS011;3835;48.850;8.938;2022-12-18T02:50:17;23.27;;;21.15;;
7587;SDS011;3835;48.850;8.938;2022-12-18T02:52:50;21.05;;;19.00;;
7587;SDS011;3835;48.850;8.938;2022-12-18T02:55:28;23.33;;;20.98;;
7587;SDS011;3835;48.850;8.938;2022-12-18T02:58:05;21.75;;;19.80;;
7587;SDS011;3835;48.850;8.938;2022-12-18T03:00:39;23.02;;;20.80;;
7587;SDS011;3835;48.850;8.938;2022-12-18T03:03:11;22.52;;;20.10;;
7587;SDS011;3835;48.850;8.938;2022-12-18T03:05:43;21.20;;;18.52;;
7587;SDS011;3835;48.850;8.938;2022-12-18T03:08:17;22.38;;;20.13;;
7587;SDS011;3835;48.850;8.938;2022-12-18T03:10:49;21.17;;;19.23;;
7587;SDS011;3835;48.850;8.938;2022-12-18T03:13:22;23.65;;;20.50;;
7587;SDS011;3835;48.850;8.938;2022-12-18T03:15:53;21.42;;;19.52;;
7587;SDS011;3835;48.850;8.938;2022-12-18T03:18:23;20.35;;;18.63;;
7587;SDS011;3835;48.850;8.938;2022-12-18T03:20:55;21.88;;;19.98;;
7587;SDS011;3835;48.850;8.938;2022-12-18T03:23:27;20.95;;;19.25;;
7587;SDS011;3835;48.850;8.938;2022-12-18T03:25:57;22.70;;;20.73;;
7587;SDS011;3835;48.850;8.938;2022-12-18T03:28:28;22.55;;;20.85;;
7587;SDS011;3835;48.850;8.938;2022-12-18T03:30:58;21.73;;;19.20;;
7587;SDS011;3835;48.850;8.938;2022-12-18T03:33:28;21.13;;;19.20;;
7587;SDS011;3835;48.850;8.938;2022-12-18T03:36:00;22.13;;;19.92;;
7587;SDS011;3835;48.850;8.938;2022-12-18T03:38:27;22.25;;;20.40;;
7587;SDS011;3835;48.850;8.938;2022-12-18T03:40:56;22.80;;;20.63;;
7587;SDS011;3835;48.850;8.938;2022-12-18T03:43:33;23.10;;;21.27;;
7587;SDS011;3835;48.850;8.938;2022-12-18T03:46:07;25.80;;;23.83;;
7587;SDS011;3835;48.850;8.938;2022-12-18T03:48:41;25.73;;;23.25;;
7587;SDS011;3835;48.850;8.938;2022-12-18T03:51:11;25.33;;;23.00;;
7587;SDS011;3835;48.850;8.938;2022-12-18T03:53:45;25.23;;;23.02;;
7587;SDS011;3835;48.850;8.938;2022-12-18T03:56:16;25.42;;;22.95;;
7587;SDS011;3835;48.850;8.938;2022-12-18T03:58:45;26.42;;;22.92;;
7587;SDS011;3835;48.850;8.938;2022-12-18T04:01:14;26.30;;;23.90;;
7587;SDS011;3835;48.850;8.938;2022-12-18T04:03:43;25.98;;;24.08;;
7587;SDS011;3835;48.850;8.938;2022-12-18T04:06:12;23.15;;;21.15;;
7587;SDS011;3835;48.850;8.938;2022-12-18T04:08:40;27.17;;;24.45;;
7587;SDS011;3835;48.850;8.938;2022-12-18T04:11:07;25.23;;;23.33;;
7587;SDS011;3835;48.850;8.938;2022-12-18T04:13:35;24.10;;;21.63;;
7587;SDS011;3835;48.850;8.938;2022-12-18T04:16:04;21.63;;;20.00;;
7587;SDS011;3835;48.850;8.938;2022-12-18T04:18:31;22.90;;;20.88;;
7587;SDS011;3835;48.850;8.938;2022-12-18T04:20:58;26.30;;;19.95;;
7587;SDS011;3835;48.850;8.938;2022-12-18T04:23:25;20.65;;;19.15;;
7587;SDS011;3835;48.850;8.938;2022-12-18T04:25:52;24.00;;;20.67;;
7587;SDS011;3835;48.850;8.938;2022-12-18T04:28:18;21.90;;;20.00;;
7587;SDS011;3835;48.850;8.938;2022-12-18T04:30:45;23.17;;;20.48;;
7587;SDS011;3835;48.850;8.938;2022-12-18T04:33:14;21.20;;;17.55;;
7587;SDS011;3835;48.850;8.938;2022-12-18T04:35:40;20.70;;;18.88;;
7587;SDS011;3835;48.850;8.938;2022-12-18T04:38:08;22.13;;;20.38;;
7587;SDS011;3835;48.850;8.938;2022-12-18T04:40:35;20.25;;;18.65;;
7587;SDS011;3835;48.850;8.938;2022-12-18T04:43:02;20.25;;;18.85;;
7587;SDS011;3835;48.850;8.938;2022-12-18T04:45:29;19.38;;;17.48;;
7587;SDS011;3835;48.850;8.938;2022-12-18T04:47:56;22.52;;;20.10;;
7587;SDS011;3835;48.850;8.938;2022-12-18T04:50:25;20.55;;;18.48;;
7587;SDS011;3835;48.850;8.938;2022-12-18T04:52:51;17.48;;;16.20;;
7587;SDS011;3835;48.850;8.938;2022-12-18T04:55:18;20.70;;;18.75;;
7587;SDS011;3835;48.850;8.938;2022-12-18T04:57:45;23.92;;;17.95;;
7587;SDS011;3835;48.850;8.938;2022-12-18T05:00:12;19.52;;;17.77;;
7587;SDS011;3835;48.850;8.938;2022-12-18T05:02:39;20.08;;;18.67;;
7587;SDS011;3835;48.850;8.938;2022-12-18T05:05:07;16.92;;;15.13;;
7587;SDS011;3835;48.850;8.938;2022-12-18T05:07:35;31.67;;;20.33;;
7587;SDS011;3835;48.850;8.938;2022-12-18T05:10:02;18.00;;;16.60;;
7587;SDS011;3835;48.850;8.938;2022-12-18T05:12:33;20.40;;;18.20;;
7587;SDS011;3835;48.850;8.938;2022-12-18T05:15:20;17.00;;;15.77;;
7587;SDS011;3835;48.850;8.938;2022-12-18T05:17:46;26.30;;;18.88;;
7587;SDS011;3835;48.850;8.938;2022-12-18T05:20:13;18.48;;;17.02;;
7587;SDS011;3835;48.850;8.938;2022-12-18T05:22:41;20.10;;;18.30;;
7587;SDS011;3835;48.850;8.938;2022-12-18T05:25:08;18.05;;;16.48;;
7587;SDS011;3835;48.850;8.938;2022-12-18T05:27:35;18.75;;;17.25;;
7587;SDS011;3835;48.850;8.938;2022-12-18T05:30:02;23.02;;;17.45;;
7587;SDS011;3835;48.850;8.938;2022-12-18T05:32:29;19.38;;;17.58;;
7587;SDS011;3835;48.850;8.938;2022-12-18T05:34:56;19.27;;;17.73;;
7587;SDS011;3835;48.850;8.938;2022-12-18T05:37:23;19.23;;;17.90;;
7587;SDS011;3835;48.850;8.938;2022-12-18T05:39:51;19.17;;;17.45;;
7587;SDS011;3835;48.850;8.938;2022-12-18T05:42:18;30.23;;;17.65;;
7587;SDS011;3835;48.850;8.938;2022-12-18T05:44:44;20.60;;;18.58;;
7587;SDS011;3835;48.850;8.938;2022-12-18T05:47:11;20.95;;;19.27;;
7587;SDS011;3835;48.850;8.938;2022-12-18T05:49:38;19.73;;;18.08;;
7587;SDS011;3835;48.850;8.938;2022-12-18T05:52:04;22.45;;;20.23;;
7587;SDS011;3835;48.850;8.938;2022-12-18T05:54:31;17.90;;;16.35;;
7587;SDS011;3835;48.850;8.938;2022-12-18T05:56:59;20.60;;;18.33;;
7587;SDS011;3835;48.850;8.938;2022-12-18T05:59:26;21.63;;;19.38;;
7587;SDS011;3835;48.850;8.938;2022-12-18T06:01:53;26.00;;;22.67;;
7587;SDS011;3835;48.850;8.938;2022-12-18T06:04:20;23.80;;;22.15;;
7587;SDS011;3835;48.850;8.938;2022-12-18T06:06:46;22.20;;;19.98;;
7587;SDS011;3835;48.850;8.938;2022-12-18T06:09:13;25.75;;;23.38;;
7587;SDS011;3835;48.850;8.938;2022-12-18T06:11:40;35.22;;;24.63;;
7587;SDS011;3835;48.850;8.938;2022-12-18T06:14:08;23.45;;;21.30;;
7587;SDS011;3835;48.850;8.938;2022-12-18T06:16:36;19.30;;;17.58;;
7587;SDS011;3835;48.850;8.938;2022-12-18T06:19:03;20.30;;;18.38;;
7587;SDS011;3835;48.850;8.938;2022-12-18T06:21:31;20.60;;;18.73;;
7587;SDS011;3835;48.850;8.938;2022-12-18T06:24:02;22.02;;;19.77;;
7587;SDS011;3835;48.850;8.938;2022-12-18T06:26:29;25.17;;;18.92;;
7587;SDS011;3835;48.850;8.938;2022-12-18T06:28:56;18.27;;;16.75;;
7587;SDS011;3835;48.850;8.938;2022-12-18T06:31:24;24.85;;;18.65;;
7587;SDS011;3835;48.850;8.938;2022-12-18T06:33:51;19.02;;;17.25;;
7587;SDS011;3835;48.850;8.938;2022-12-18T06:36:18;21.73;;;19.48;;
7587;SDS011;3835;48.850;8.938;2022-12-18T06:38:45;20.95;;;18.77;;
7587;SDS011;3835;48.850;8.938;2022-12-18T06:41:13;18.63;;;16.85;;
7587;SDS011;3835;48.850;8.938;2022-12-18T06:43:41;22.73;;;19.95;;
7587;SDS011;3835;48.850;8.938;2022-12-18T06:46:08;26.85;;;20.27;;
7587;SDS011;3835;48.850;8.938;2022-12-18T06:48:37;26.23;;;19.85;;
7587;SDS011;3835;48.850;8.938;2022-12-18T06:51:04;29.80;;;19.15;;
7587;SDS011;3835;48.850;8.938;2022-12-18T06:53:31;22.73;;;20.52;;
7587;SDS011;3835;48.850;8.938;2022-12-18T06:55:59;23.70;;;21.25;;
7587;SDS011;3835;48.850;8.938;2022-12-18T06:58:27;22.20;;;19.90;;
7587;SDS011;3835;48.850;8.938;2022-12-18T07:00:58;23.13;;;20.88;;
7587;SDS011;3835;48.850;8.938;2022-12-18T07:03:27;21.33;;;18.98;;
7587;SDS011;3835;48.850;8.938;2022-12-18T07:05:55;21.90;;;19.80;;
7587;SDS011;3835;48.850;8.938;2022-12-18T07:08:22;18.67;;;17.05;;
7587;SDS011;3835;48.850;8.938;2022-12-18T07:10:49;21.95;;;18.30;;
7587;SDS011;3835;48.850;8.938;2022-12-18T07:13:16;21.17;;;19.13;;
7587;SDS011;3835;48.850;8.938;2022-12-18T07:15:43;28.20;;;19.70;;
7587;SDS011;3835;48.850;8.938;2022-12-18T07:18:09;24.15;;;19.83;;
7587;SDS011;3835;48.850;8.938;2022-12-18T07:20:36;25.92;;;21.42;;
7587;SDS011;3835;48.850;8.938;2022-12-18T07:23:05;28.05;;;20.85;;
7587;SDS011;3835;48.850;8.938;2022-12-18T07:25:33;21.50;;;19.33;;
7587;SDS011;3835;48.850;8.938;2022-12-18T07:28:00;29.45;;;20.63;;
7587;SDS011;3835;48.850;8.938;2022-12-18T07:30:27;24.88;;;19.67;;
7587;SDS011;3835;48.850;8.938;2022-12-18T07:32:55;31.55;;;21.50;;
7587;SDS011;3835;48.850;8.938;2022-12-18T07:35:21;21.65;;;19.75;;
7587;SDS011;3835;48.850;8.938;2022-12-18T07:37:48;25.75;;;20.08;;
7587;SDS011;3835;48.850;8.938;2022-12-18T07:40:16;21.27;;;18.80;;
7587;SDS011;3835;48.850;8.938;2022-12-18T07:42:43;22.65;;;20.77;;
7587;SDS011;3835;48.850;8.938;2022-12-18T07:45:10;24.10;;;21.77;;
7587;SDS011;3835;48.850;8.938;2022-12-18T07:47:37;24.48;;;22.33;;
7587;SDS011;3835;48.850;8.938;2022-12-18T07:50:06;27.15;;;24.92;;
7587;SDS011;3835;48.850;8.938;2022-12-18T07:52:33;25.73;;;23.88;;
7587;SDS011;3835;48.850;8.938;2022-12-18T07:55:00;29.35;;;25.38;;
7587;SDS011;3835;48.850;8.938;2022-12-18T07:57:29;28.77;;;26.33;;
7587;SDS011;3835;48.850;8.938;2022-12-18T07:59:56;27.95;;;25.42;;
7587;SDS011;3835;48.850;8.938;2022-12-18T08:02:23;26.73;;;24.17;;
7587;SDS011;3835;48.850;8.938;2022-12-18T08:04:49;33.00;;;26.75;;
7587;SDS011;3835;48.850;8.938;2022-12-18T08:07:16;29.25;;;26.55;;
7587;SDS011;3835;48.850;8.938;2022-12-18T08:09:43;28.67;;;26.02;;
7587;SDS011;3835;48.850;8.938;2022-12-18T08:12:10;28.05;;;24.88;;
7587;SDS011;3835;48.850;8.938;2022-12-18T08:14:38;27.77;;;23.85;;
7587;SDS011;3835;48.850;8.938;2022-12-18T08:17:05;23.05;;;21.02;;
7587;SDS011;3835;48.850;8.938;2022-12-18T08:19:32;24.50;;;21.95;;
7587;SDS011;3835;48.850;8.938;2022-12-18T08:21:59;33.30;;;21.60;;
7587;SDS011;3835;48.850;8.938;2022-12-18T08:24:25;17.60;;;15.90;;
7587;SDS011;3835;48.850;8.938;2022-12-18T08:26:52;21.65;;;19.38;;
7587;SDS011;3835;48.850;8.938;2022-12-18T08:29:19;21.08;;;18.90;;
7587;SDS011;3835;48.850;8.938;2022-12-18T08:31:47;25.42;;;20.85;;
7587;SDS011;3835;48.850;8.938;2022-12-18T08:34:14;18.17;;;16.73;;
7587;SDS011;3835;48.850;8.938;2022-12-18T08:36:41;23.67;;;18.35;;
7587;SDS011;3835;48.850;8.938;2022-12-18T08:39:08;20.02;;;18.02;;
7587;SDS011;3835;48.850;8.938;2022-12-18T08:41:34;25.70;;;18.05;;
7587;SDS011;3835;48.850;8.938;2022-12-18T08:44:01;21.38;;;18.77;;
7587;SDS011;3835;48.850;8.938;2022-12-18T08:46:45;19.13;;;17.20;;
7587;SDS011;3835;48.850;8.938;2022-12-18T08:49:14;24.60;;;18.70;;
7587;SDS011;3835;48.850;8.938;2022-12-18T08:51:40;22.33;;;17.70;;
7587;SDS011;3835;48.850;8.938;2022-12-18T08:54:08;20.58;;;18.38;;
7587;SDS011;3835;48.850;8.938;2022-12-18T08:56:37;21.40;;;18.42;;
7587;SDS011;3835;48.850;8.938;2022-12-18T08:59:04;21.77;;;19.48;;
7587;SDS011;3835;48.850;8.938;2022-12-18T09:01:31;21.15;;;19.02;;
7587;SDS011;3835;48.850;8.938;2022-12-18T09:03:59;21.48;;;19.20;;
7587;SDS011;3835;48.850;8.938;2022-12-18T09:06:26;24.02;;;21.33;;
7587;SDS011;3835;48.850;8.938;2022-12-18T09:08:53;23.23;;;20.90;;
7587;SDS011;3835;48.850;8.938;2022-12-18T09:11:20;23.60;;;20.30;;
7587;SDS011;3835;48.850;8.938;2022-12-18T09:13:49;20.35;;;18.25;;
7587;SDS011;3835;48.850;8.938;2022-12-18T09:16:16;23.95;;;19.33;;
7587;SDS011;3835;48.850;8.938;2022-12-18T09:18:44;24.88;;;20.00;;
7587;SDS011;3835;48.850;8.938;2022-12-18T09:21:13;21.23;;;19.20;;
7587;SDS011;3835;48.850;8.938;2022-12-18T09:23:41;23.27;;;20.65;;
7587;SDS011;3835;48.850;8.938;2022-12-18T09:26:08;24.52;;;19.88;;
7587;SDS011;3835;48.850;8.938;2022-12-18T09:28:35;24.15;;;19.77;;
7587;SDS011;3835;48.850;8.938;2022-12-18T09:31:06;18.17;;;16.48;;
7587;SDS011;3835;48.850;8.938;2022-12-18T09:33:33;30.13;;;19.85;;
7587;SDS011;3835;48.850;8.938;2022-12-18T09:36:01;18.58;;;16.75;;
7587;SDS011;3835;48.850;8.938;2022-12-18T09:38:30;22.95;;;18.50;;
7587;SDS011;3835;48.850;8.938;2022-12-18T09:40:57;21.23;;;19.23;;
7587;SDS011;3835;48.850;8.938;2022-12-18T09:43:28;18.50;;;16.75;;
7587;SDS011;3835;48.850;8.938;2022-12-18T09:46:01;19.70;;;17.75;;
7587;SDS011;3835;48.850;8.938;2022-12-18T09:48:34;21.13;;;18.10;;
7587;SDS011;3835;48.850;8.938;2022-12-18T09:51:06;19.83;;;17.70;;
7587;SDS011;3835;48.850;8.938;2022-12-18T09:53:41;23.75;;;18.50;;
7587;SDS011;3835;48.850;8.938;2022-12-18T09:56:11;22.75;;;19.08;;
7587;SDS011;3835;48.850;8.938;2022-12-18T09:58:43;23.42;;;18.48;;
7587;SDS011;3835;48.850;8.938;2022-12-18T10:01:14;23.05;;;19.98;;
7587;SDS011;3835;48.850;8.938;2022-12-18T10:03:44;27.15;;;21.08;;
7587;SDS011;3835;48.850;8.938;2022-12-18T10:06:12;25.27;;;19.30;;
7587;SDS011;3835;48.850;8.938;2022-12-18T10:08:46;22.25;;;19.77;;
7587;SDS011;3835;48.850;8.938;2022-12-18T10:11:25;21.33;;;19.30;;
7587;SDS011;3835;48.850;8.938;2022-12-18T10:14:01;20.00;;;18.05;;
7587;SDS011;3835;48.850;8.938;2022-12-18T10:16:36;19.38;;;17.52;;
7587;SDS011;3835;48.850;8.938;2022-12-18T10:19:17;23.85;;;19.70;;
7587;SDS011;3835;48.850;8.938;2022-12-18T10:22:02;23.83;;;19.42;;
7587;SDS011;3835;48.850;8.938;2022-12-18T10:24:40;19.63;;;17.63;;
7587;SDS011;3835;48.850;8.938;2022-12-18T10:27:13;20.02;;;18.05;;
7587;SDS011;3835;48.850;8.938;2022-12-18T10:29:42;21.58;;;18.15;;
7587;SDS011;3835;48.850;8.938;2022-12-18T10:32:13;25.33;;;18.60;;
7587;SDS011;3835;48.850;8.938;2022-12-18T10:34:45;18.70;;;16.77;;
7587;SDS011;3835;48.850;8.938;2022-12-18T10:37:14;19.77;;;17.45;;
7587;SDS011;3835;48.850;8.938;2022-12-18T10:39:44;25.65;;;17.90;;
7587;SDS011;3835;48.850;8.938;2022-12-18T10:42:16;22.88;;;20.25;;
7587;SDS011;3835;48.850;8.938;2022-12-18T10:44:44;23.45;;;18.60;;
7587;SDS011;3835;48.850;8.938;2022-12-18T10:47:12;25.80;;;22.42;;
7587;SDS011;3835;48.850;8.938;2022-12-18T10:49:46;32.78;;;26.45;;
7587;SDS011;3835;48.850;8.938;2022-12-18T10:52:17;27.40;;;24.77;;
7587;SDS011;3835;48.850;8.938;2022-12-18T10:54:48;22.95;;;20.70;;
7587;SDS011;3835;48.850;8.938;2022-12-18T10:57:29;22.20;;;20.10;;
7587;SDS011;3835;48.850;8.938;2022-12-18T11:00:00;20.58;;;18.45;;
7587;SDS011;3835;48.850;8.938;2022-12-18T11:02:43;21.45;;;19.13;;
7587;SDS011;3835;48.850;8.938;2022-12-18T11:05:23;22.10;;;18.48;;
7587;SDS011;3835;48.850;8.938;2022-12-18T11:07:52;22.05;;;19.83;;
7587;SDS011;3835;48.850;8.938;2022-12-18T11:10:21;21.50;;;19.00;;
7587;SDS011;3835;48.850;8.938;2022-12-18T11:12:51;21.88;;;18.45;;
7587;SDS011;3835;48.850;8.938;2022-12-18T11:15:20;20.95;;;16.80;;
7587;SDS011;3835;48.850;8.938;2022-12-18T11:17:52;24.88;;;18.40;;
7587;SDS011;3835;48.850;8.938;2022-12-18T11:20:20;25.25;;;19.27;;
7587;SDS011;3835;48.850;8.938;2022-12-18T11:22:56;24.40;;;19.33;;
7587;SDS011;3835;48.850;8.938;2022-12-18T11:25:31;21.67;;;19.40;;
7587;SDS011;3835;48.850;8.938;2022-12-18T11:28:00;20.88;;;16.80;;
7587;SDS011;3835;48.850;8.938;2022-12-18T11:30:29;21.95;;;19.27;;
7587;SDS011;3835;48.850;8.938;2022-12-18T11:32:59;24.95;;;18.67;;
7587;SDS011;3835;48.850;8.938;2022-12-18T11:35:40;20.48;;;17.77;;
7587;SDS011;3835;48.850;8.938;2022-12-18T11:38:18;19.88;;;17.77;;
7587;SDS011;3835;48.850;8.938;2022-12-18T11:40:53;23.75;;;18.27;;
7587;SDS011;3835;48.850;8.938;2022-12-18T11:43:26;19.88;;;17.63;;
7587;SDS011;3835;48.850;8.938;2022-12-18T11:45:58;25.48;;;17.63;;
7587;SDS011;3835;48.850;8.938;2022-12-18T11:48:32;18.92;;;15.95;;
7587;SDS011;3835;48.850;8.938;2022-12-18T11:51:04;24.10;;;18.17;;
7587;SDS011;3835;48.850;8.938;2022-12-18T11:53:38;24.25;;;19.30;;
7587;SDS011;3835;48.850;8.938;2022-12-18T11:56:13;29.20;;;19.67;;
7587;SDS011;3835;48.850;8.938;2022-12-18T11:58:55;26.50;;;17.77;;
7587;SDS011;3835;48.850;8.938;2022-12-18T12:01:33;23.35;;;19.50;;
7587;SDS011;3835;48.850;8.938;2022-12-18T12:04:16;25.15;;;18.95;;
7587;SDS011;3835;48.850;8.938;2022-12-18T12:07:00;29.45;;;18.77;;
7587;SDS011;3835;48.850;8.938;2022-12-18T12:09:40;23.02;;;19.48;;
7587;SDS011;3835;48.850;8.938;2022-12-18T12:12:22;23.05;;;20.70;;
7587;SDS011;3835;48.850;8.938;2022-12-18T12:15:13;26.27;;;21.05;;
7587;SDS011;3835;48.850;8.938;2022-12-18T12:17:50;26.48;;;22.02;;
7587;SDS011;3835;48.850;8.938;2022-12-18T12:20:24;24.02;;;21.20;;
7587;SDS011;3835;48.850;8.938;2022-12-18T12:22:59;26.10;;;22.65;;
7587;SDS011;3835;48.850;8.938;2022-12-18T12:25:35;24.05;;;21.63;;
7587;SDS011;3835;48.850;8.938;2022-12-18T12:28:13;24.80;;;20.83;;
7587;SDS011;3835;48.850;8.938;2022-12-18T12:30:48;27.30;;;19.23;;
7587;SDS011;3835;48.850;8.938;2022-12-18T12:33:29;23.97;;;18.80;;
7587;SDS011;3835;48.850;8.938;2022-12-18T12:36:07;20.57;;;18.40;;
7587;SDS011;3835;48.850;8.938;2022-12-18T12:38:40;23.47;;;18.63;;
7587;SDS011;3835;48.850;8.938;2022-12-18T12:41:12;33.10;;;18.73;;
7587;SDS011;3835;48.850;8.938;2022-12-18T12:43:58;24.83;;;18.57;;
7587;SDS011;3835;48.850;8.938;2022-12-18T12:46:29;22.17;;;18.33;;
7587;SDS011;3835;48.850;8.938;2022-12-18T12:48:58;26.80;;;18.40;;
7587;SDS011;3835;48.850;8.938;2022-12-18T12:51:29;25.53;;;17.77;;
7587;SDS011;3835;48.850;8.938;2022-12-18T12:54:00;19.07;;;17.10;;
7587;SDS011;3835;48.850;8.938;2022-12-18T12:56:34;24.33;;;18.30;;
7587;SDS011;3835;48.850;8.938;2022-12-18T12:59:13;29.30;;;21.17;;
7587;SDS011;3835;48.850;8.938;2022-12-18T13:01:49;24.93;;;19.20;;
7587;SDS011;3835;48.850;8.938;2022-12-18T13:04:21;31.33;;;19.47;;
7587;SDS011;3835;48.850;8.938;2022-12-18T13:07:00;36.42;;;22.52;;
7587;SDS011;3835;48.850;8.938;2022-12-18T13:09:33;30.70;;;22.30;;
7587;SDS011;3835;48.850;8.938;2022-12-18T13:12:21;25.67;;;20.83;;
7587;SDS011;3835;48.850;8.938;2022-12-18T13:15:19;22.13;;;19.83;;
7587;SDS011;3835;48.850;8.938;2022-12-18T13:17:58;22.97;;;20.57;;
7587;SDS011;3835;48.850;8.938;2022-12-18T13:20:33;30.53;;;22.20;;
7587;SDS011;3835;48.850;8.938;2022-12-18T13:23:01;27.67;;;21.60;;
7587;SDS011;3835;48.850;8.938;2022-12-18T13:25:56;22.70;;;20.02;;
7587;SDS011;3835;48.850;8.938;2022-12-18T13:34:35;26.02;;;19.38;;
7587;SDS011;3835;48.850;8.938;2022-12-18T13:43:24;26.17;;;19.77;;
7587;SDS011;3835;48.850;8.938;2022-12-18T13:46:00;20.65;;;18.42;;
7587;SDS011;3835;48.850;8.938;2022-12-18T13:48:33;24.33;;;19.38;;
7587;SDS011;3835;48.850;8.938;2022-12-18T13:51:05;24.55;;;19.17;;
7587;SDS011;3835;48.850;8.938;2022-12-18T13:53:35;27.27;;;20.02;;
7587;SDS011;3835;48.850;8.938;2022-12-18T13:56:09;23.52;;;19.05;;
7587;SDS011;3835;48.850;8.938;2022-12-18T13:58:45;25.35;;;19.95;;
7587;SDS011;3835;48.850;8.938;2022-12-18T14:01:30;22.27;;;18.07;;
7587;SDS011;3835;48.850;8.938;2022-12-18T14:04:08;27.30;;;21.83;;
7587;SDS011;3835;48.850;8.938;2022-12-18T14:06:37;23.93;;;21.10;;
7587;SDS011;3835;48.850;8.938;2022-12-18T14:09:04;27.10;;;21.50;;
7587;SDS011;3835;48.850;8.938;2022-12-18T14:11:31;23.95;;;21.50;;
7587;SDS011;3835;48.850;8.938;2022-12-18T14:13:58;31.43;;;20.37;;
7587;SDS011;3835;48.850;8.938;2022-12-18T14:16:25;31.13;;;21.40;;
7587;SDS011;3835;48.850;8.938;2022-12-18T14:18:54;26.57;;;21.60;;
7587;SDS011;3835;48.850;8.938;2022-12-18T14:21:23;29.52;;;21.35;;
7587;SDS011;3835;48.850;8.938;2022-12-18T14:24:12;26.48;;;22.65;;
7587;SDS011;3835;48.850;8.938;2022-12-18T14:26:41;28.58;;;20.13;;
7587;SDS011;3835;48.850;8.938;2022-12-18T14:29:18;31.40;;;22.30;;
7587;SDS011;3835;48.850;8.938;2022-12-18T14:32:10;27.57;;;24.10;;
7587;SDS011;3835;48.850;8.938;2022-12-18T14:34:39;23.50;;;20.95;;
7587;SDS011;3835;48.850;8.938;2022-12-18T14:37:09;27.50;;;22.25;;
7587;SDS011;3835;48.850;8.938;2022-12-18T14:39:39;25.77;;;20.67;;
7587;SDS011;3835;48.850;8.938;2022-12-18T14:42:09;28.05;;;20.13;;
7587;SDS011;3835;48.850;8.938;2022-12-18T14:44:37;34.35;;;20.35;;
7587;SDS011;3835;48.850;8.938;2022-12-18T14:47:04;24.58;;;19.52;;
7587;SDS011;3835;48.850;8.938;2022-12-18T14:49:39;26.17;;;20.08;;
7587;SDS011;3835;48.850;8.938;2022-12-18T14:52:17;29.70;;;21.27;;
7587;SDS011;3835;48.850;8.938;2022-12-18T14:54:51;26.85;;;20.10;;
7587;SDS011;3835;48.850;8.938;2022-12-18T14:57:22;27.63;;;20.15;;
7587;SDS011;3835;48.850;8.938;2022-12-18T14:59:52;23.98;;;19.88;;
7587;SDS011;3835;48.850;8.938;2022-12-18T15:02:21;25.02;;;21.50;;
7587;SDS011;3835;48.850;8.938;2022-12-18T15:04:59;23.08;;;19.98;;
7587;SDS011;3835;48.850;8.938;2022-12-18T15:07:38;30.90;;;20.90;;
7587;SDS011;3835;48.850;8.938;2022-12-18T15:10:11;24.80;;;19.55;;
7587;SDS011;3835;48.850;8.938;2022-12-18T15:12:42;19.45;;;17.38;;
7587;SDS011;3835;48.850;8.938;2022-12-18T15:18:27;30.85;;;22.92;;
7587;SDS011;3835;48.850;8.938;2022-12-18T15:21:07;29.95;;;21.88;;
7587;SDS011;3835;48.850;8.938;2022-12-18T15:23:45;23.30;;;20.92;;